Time;durP1;ratioP1;P1;durP2;ratioP2;P2;SDS_P1;SDS_P2;PMS_P1;PMS_P2;Temp;Humidity;BMP_temperature;BMP_pressure;BME280_temperature;BME280_humidity;BME280_pressure;Samples;Min_cycle;Max_cycle;Signal;HPM_P1;HPM_P2
2022/01/13 00:00:35;;;;;;;31.23;11.40;;;-9.40;99.90;;;;;;5074629;28;20442;-59
2022/01/13 00:03:00;;;;;;;27.73;10.03;;;-9.30;99.90;;;;;;5074229;28;20185;-60
2022/01/13 00:05:29;;;;;;;27.10;9.47;;;-9.30;99.90;;;;;;5072608;28;20642;-60
2022/01/13 00:07:57;;;;;;;22.40;9.67;;;-9.30;99.90;;;;;;5073337;28;20526;-60
2022/01/13 00:10:26;;;;;;;26.13;9.77;;;-9.30;99.90;;;;;;5073044;28;20499;-70
2022/01/13 00:13:22;;;;;;;23.67;10.57;;;-9.30;99.90;;;;;;5073647;28;20451;-59
2022/01/13 00:15:50;;;;;;;24.00;8.83;;;-9.20;99.90;;;;;;5073463;28;20776;-59
2022/01/13 00:18:37;;;;;;;20.27;7.03;;;-9.30;99.90;;;;;;5073263;28;20422;-58
2022/01/13 00:21:16;;;;;;;16.67;8.60;;;-9.30;99.90;;;;;;5073775;28;20506;-57
2022/01/13 00:23:49;;;;;;;24.57;9.97;;;-9.20;99.90;;;;;;5073868;28;20531;-59
2022/01/13 00:26:26;;;;;;;23.03;9.63;;;-9.30;99.90;;;;;;5074077;28;20387;-59
2022/01/13 00:28:54;;;;;;;25.83;10.60;;;-9.20;99.90;;;;;;5057505;28;20764;-60
2022/01/13 00:31:26;;;;;;;25.47;11.27;;;-9.20;99.90;;;;;;5073796;28;20458;-59
2022/01/13 00:33:54;;;;;;;32.00;12.17;;;-9.30;99.90;;;;;;5073820;28;20386;-59
2022/01/13 00:36:22;;;;;;;26.93;9.97;;;-9.40;99.90;;;;;;5073907;28;20410;-59
2022/01/13 00:38:48;;;;;;;24.40;10.67;;;-9.30;99.90;;;;;;5073478;28;20418;-59
2022/01/13 00:41:14;;;;;;;14.23;6.50;;;-9.30;99.90;;;;;;5073933;28;20893;-59
2022/01/13 00:43:42;;;;;;;28.07;10.87;;;-9.40;99.90;;;;;;5073704;28;20183;-59
2022/01/13 00:46:09;;;;;;;23.23;10.57;;;-9.40;99.90;;;;;;5073920;28;20215;-59
2022/01/13 00:48:35;;;;;;;27.50;10.10;;;-9.40;99.90;;;;;;5072992;28;20801;-59
2022/01/13 00:51:01;;;;;;;31.97;10.90;;;-9.50;99.90;;;;;;5073139;28;20409;-56
2022/01/13 00:53:27;;;;;;;21.90;8.43;;;-9.50;99.90;;;;;;5073275;28;20402;-59
2022/01/13 00:55:59;;;;;;;32.77;10.83;;;-9.60;99.90;;;;;;5073512;28;20402;-59
2022/01/13 00:58:30;;;;;;;30.97;12.50;;;-9.60;99.90;;;;;;5073593;28;20175;-59
2022/01/13 01:00:57;;;;;;;21.83;7.30;;;-9.60;99.90;;;;;;5073207;28;20405;-58
2022/01/13 01:03:24;;;;;;;26.63;10.13;;;-9.60;99.90;;;;;;5073264;28;20414;-58
2022/01/13 01:05:50;;;;;;;28.87;10.90;;;-9.30;99.90;;;;;;5072742;28;20442;-59
2022/01/13 01:08:15;;;;;;;33.20;11.67;;;-9.20;99.90;;;;;;5073064;28;20422;-56
2022/01/13 01:10:41;;;;;;;26.97;10.57;;;-9.30;99.90;;;;;;5072655;28;20184;-58
2022/01/13 01:13:12;;;;;;;32.43;12.50;;;-9.30;99.90;;;;;;5073092;28;20249;-59
2022/01/13 01:15:42;;;;;;;31.80;14.57;;;-9.30;99.90;;;;;;5072514;28;20175;-59
2022/01/13 01:18:26;;;;;;;37.40;14.33;;;-9.20;99.90;;;;;;5072817;28;20433;-59
2022/01/13 01:29:29;;;;;;;32.27;12.63;;;-9.20;99.90;;;;;;5072852;28;20910;-58
2022/01/13 01:31:56;;;;;;;39.03;13.70;;;-9.20;99.90;;;;;;5072457;28;20890;-58
2022/01/13 01:36:55;;;;;;;34.00;14.20;;;-9.20;99.90;;;;;;5073024;28;20386;-58
2022/01/13 01:39:21;;;;;;;29.23;11.00;;;-9.30;99.90;;;;;;5072280;28;20855;-57
2022/01/13 01:41:49;;;;;;;41.13;13.63;;;-9.30;99.90;;;;;;5072468;28;20402;-57
2022/01/13 01:44:19;;;;;;;38.10;12.73;;;-9.30;99.90;;;;;;5054718;28;20444;-59
2022/01/13 01:46:46;;;;;;;24.43;10.60;;;-9.30;99.90;;;;;;5072490;28;20406;-59
2022/01/13 01:49:22;;;;;;;33.83;13.97;;;-9.30;99.90;;;;;;5072469;28;21025;-58
2022/01/13 01:51:54;;;;;;;32.33;11.10;;;-9.30;99.90;;;;;;5072200;28;20454;-58
2022/01/13 01:54:20;;;;;;;33.80;12.33;;;-9.30;99.90;;;;;;5072599;28;20501;-59
2022/01/13 01:56:45;;;;;;;34.27;12.93;;;-9.40;99.90;;;;;;5072244;28;20926;-59
2022/01/13 01:59:18;;;;;;;27.53;10.60;;;-9.50;99.90;;;;;;5054520;28;20286;-59
2022/01/13 02:01:49;;;;;;;18.57;6.97;;;-9.50;99.90;;;;;;5071773;28;20193;-61
2022/01/13 02:04:16;;;;;;;32.60;14.13;;;-9.40;99.90;;;;;;5072354;28;20402;-58
2022/01/13 02:06:44;;;;;;;36.23;14.17;;;-9.20;99.90;;;;;;5072080;28;20413;-56
2022/01/13 02:09:12;;;;;;;34.63;12.53;;;-9.00;99.90;;;;;;5072356;28;20501;-58
2022/01/13 02:11:44;;;;;;;27.20;10.33;;;-9.00;99.90;;;;;;5071882;28;20529;-58
2022/01/13 02:17:10;;;;;;;43.20;14.13;;;-8.90;99.90;;;;;;4982707;28;20425;-56
2022/01/13 02:19:42;;;;;;;36.53;14.57;;;-8.90;99.90;;;;;;5071876;28;20881;-59
2022/01/13 02:22:08;;;;;;;41.60;14.10;;;-8.90;99.90;;;;;;5071989;28;20485;-56
2022/01/13 02:24:34;;;;;;;42.73;16.03;;;-8.90;99.90;;;;;;5071925;28;20453;-57
2022/01/13 02:27:02;;;;;;;29.40;11.57;;;-8.90;99.90;;;;;;5053952;28;20460;-59
2022/01/13 02:29:27;;;;;;;27.73;11.97;;;-8.90;99.90;;;;;;5072094;28;20417;-59
2022/01/13 02:31:53;;;;;;;32.30;9.70;;;-8.80;99.90;;;;;;5071579;28;20462;-59
2022/01/13 02:34:20;;;;;;;39.27;14.33;;;-8.70;99.90;;;;;;5071955;28;20648;-58
2022/01/13 02:36:48;;;;;;;26.50;11.37;;;-8.70;99.90;;;;;;5071796;28;20191;-58
2022/01/13 02:39:14;;;;;;;45.60;15.23;;;-8.70;99.90;;;;;;5071760;28;20888;-58
2022/01/13 02:41:40;;;;;;;32.43;10.93;;;-8.60;99.90;;;;;;5071715;28;20408;-57
2022/01/13 02:44:15;;;;;;;39.83;15.30;;;-8.60;99.90;;;;;;5071714;28;20181;-59
2022/01/13 02:49:09;;;;;;;28.90;12.17;;;-8.60;99.90;;;;;;5071960;28;20564;-57
2022/01/13 02:51:36;;;;;;;49.83;17.67;;;-8.50;99.90;;;;;;5071599;28;20457;-55
2022/01/13 02:54:04;;;;;;;32.07;11.57;;;-8.40;99.90;;;;;;5071807;28;20926;-58
2022/01/13 02:56:30;;;;;;;28.47;11.77;;;-8.40;99.90;;;;;;5071828;28;20410;-57
2022/01/13 02:58:56;;;;;;;40.50;15.27;;;-8.30;99.90;;;;;;5071481;28;20412;-60
2022/01/13 03:01:22;;;;;;;33.17;12.57;;;-8.30;99.90;;;;;;5071323;28;20410;-57
2022/01/13 03:03:48;;;;;;;33.77;13.10;;;-8.30;99.90;;;;;;5071178;28;20265;-66
2022/01/13 03:06:17;;;;;;;27.33;12.23;;;-8.30;99.90;;;;;;5051021;28;20506;-57
2022/01/13 03:08:46;;;;;;;29.63;10.13;;;-8.20;99.90;;;;;;5050690;28;20178;-59
2022/01/13 03:11:12;;;;;;;40.43;15.70;;;-8.20;99.90;;;;;;5050882;28;20185;-59
2022/01/13 03:13:39;;;;;;;43.50;14.57;;;-8.10;99.90;;;;;;5053718;28;20422;-59
2022/01/13 03:16:06;;;;;;;26.73;11.87;;;-8.10;99.90;;;;;;5037684;28;20181;-57
2022/01/13 03:18:32;;;;;;;30.77;11.03;;;-8.10;99.90;;;;;;5055365;28;20425;-60
2022/01/13 03:20:58;;;;;;;34.10;14.93;;;-8.10;99.90;;;;;;5055408;28;20744;-60
2022/01/13 03:23:23;;;;;;;36.40;16.37;;;-8.10;99.90;;;;;;5055446;28;20672;-59
2022/01/13 03:25:49;;;;;;;40.80;14.23;;;-8.10;99.90;;;;;;5055124;28;20189;-60
2022/01/13 03:28:18;;;;;;;41.07;15.13;;;-8.20;99.90;;;;;;5057152;28;20182;-57
2022/01/13 03:30:46;;;;;;;31.33;10.17;;;-8.20;99.90;;;;;;5074953;28;20323;-58
2022/01/13 03:33:12;;;;;;;35.63;10.93;;;-8.20;99.90;;;;;;5074893;28;20461;-56
2022/01/13 03:35:40;;;;;;;28.50;11.00;;;-8.20;99.90;;;;;;5074569;28;20173;-58
2022/01/13 03:38:06;;;;;;;43.33;14.97;;;-8.30;99.90;;;;;;5075080;28;20182;-58
2022/01/13 03:40:33;;;;;;;28.17;9.00;;;-8.30;99.90;;;;;;5075219;28;20413;-58
2022/01/13 03:43:01;;;;;;;32.67;11.97;;;-8.30;99.90;;;;;;5074928;28;20457;-58
2022/01/13 03:45:27;;;;;;;41.10;15.57;;;-8.30;99.90;;;;;;5074770;28;20414;-58
2022/01/13 03:47:54;;;;;;;34.67;12.83;;;-8.30;99.90;;;;;;5074285;28;20522;-59
2022/01/13 03:50:20;;;;;;;37.10;14.43;;;-8.40;99.90;;;;;;5074866;28;20901;-58
2022/01/13 03:53:03;;;;;;;40.90;15.10;;;-8.40;99.90;;;;;;5074454;28;20464;-58
2022/01/13 03:55:35;;;;;;;40.70;14.60;;;-8.50;99.90;;;;;;5074732;28;20474;-57
2022/01/13 03:58:19;;;;;;;41.33;13.57;;;-8.50;99.90;;;;;;5074987;28;20410;-59
2022/01/13 04:00:48;;;;;;;35.63;13.10;;;-8.50;99.90;;;;;;5074321;28;20402;-59
2022/01/13 04:03:14;;;;;;;26.83;11.13;;;-8.50;99.90;;;;;;5074103;28;20421;-59
2022/01/13 04:06:21;;;;;;;32.83;11.83;;;-8.60;99.90;;;;;;5074138;28;20425;-58
2022/01/13 04:08:49;;;;;;;32.53;13.23;;;-8.60;99.90;;;;;;5060230;28;20642;-58
2022/01/13 04:11:32;;;;;;;30.50;12.13;;;-8.70;99.90;;;;;;5074152;28;20445;-61
2022/01/13 04:14:05;;;;;;;38.80;13.23;;;-8.70;99.90;;;;;;5074230;28;20390;-59
2022/01/13 04:16:34;;;;;;;38.70;15.13;;;-8.80;99.90;;;;;;5074123;28;20406;-56
2022/01/13 04:19:04;;;;;;;39.57;14.90;;;-8.90;99.90;;;;;;5074014;28;20739;-60
2022/01/13 04:21:33;;;;;;;27.33;11.37;;;-9.00;99.90;;;;;;5074208;28;20418;-59
2022/01/13 04:23:59;;;;;;;34.33;12.70;;;-9.10;99.90;;;;;;5073186;28;20882;-57
2022/01/13 04:26:30;;;;;;;34.63;12.37;;;-9.20;99.90;;;;;;5073778;28;20509;-59
2022/01/13 04:29:28;;;;;;;35.03;13.60;;;-9.30;99.90;;;;;;5056370;28;20412;-58
2022/01/13 04:31:51;;;;;;;39.93;13.33;;;-9.40;99.90;;;;;;5072517;28;20886;-58
2022/01/13 04:34:17;;;;;;;33.57;12.67;;;-9.50;99.90;;;;;;5073637;28;20405;-58
2022/01/13 04:36:44;;;;;;;40.87;15.00;;;-9.50;99.90;;;;;;5073703;28;20409;-57
2022/01/13 04:39:11;;;;;;;43.30;14.80;;;-9.60;99.90;;;;;;5073741;28;20781;-59
2022/01/13 04:41:39;;;;;;;49.43;16.63;;;-9.60;99.90;;;;;;5073685;28;20889;-58
2022/01/13 04:44:08;;;;;;;38.47;14.33;;;-9.60;99.90;;;;;;5074021;28;20438;-60
2022/01/13 04:46:34;;;;;;;38.07;14.17;;;-9.70;99.90;;;;;;5073696;28;20409;-57
2022/01/13 04:49:00;;;;;;;41.77;16.13;;;-9.60;99.90;;;;;;5073061;28;20465;-57
2022/01/13 04:51:28;;;;;;;46.27;15.80;;;-9.60;99.90;;;;;;5073894;28;20911;-59
2022/01/13 04:53:54;;;;;;;45.80;13.83;;;-9.60;99.90;;;;;;5073582;28;20182;-57
2022/01/13 04:56:30;;;;;;;42.70;15.57;;;-9.60;99.90;;;;;;5073733;28;20415;-61
2022/01/13 04:58:56;;;;;;;46.80;16.30;;;-9.70;99.90;;;;;;5073211;28;20268;-60
2022/01/13 05:01:22;;;;;;;40.70;13.30;;;-9.60;99.90;;;;;;5055426;28;20423;-59
2022/01/13 05:03:48;;;;;;;39.50;13.63;;;-9.70;99.90;;;;;;5072815;28;20399;-57
2022/01/13 05:06:17;;;;;;;41.20;14.07;;;-9.70;99.90;;;;;;5072755;28;21010;-58
2022/01/13 05:08:44;;;;;;;38.83;13.00;;;-9.70;99.90;;;;;;5072915;28;20190;-58
2022/01/13 05:11:10;;;;;;;34.63;12.50;;;-9.80;99.90;;;;;;5073172;28;20411;-59
2022/01/13 05:13:35;;;;;;;36.03;10.30;;;-9.80;99.90;;;;;;5072433;28;20404;-61
2022/01/13 05:16:01;;;;;;;40.83;12.40;;;-9.80;99.90;;;;;;5072287;28;20178;-60
2022/01/13 05:21:05;;;;;;;32.70;12.40;;;-9.80;99.90;;;;;;5072481;28;20269;-60
2022/01/13 05:23:31;;;;;;;31.33;11.57;;;-9.80;99.90;;;;;;5072761;28;20559;-59
2022/01/13 05:25:57;;;;;;;36.13;12.07;;;-9.80;99.90;;;;;;5071925;28;20943;-60
2022/01/13 05:28:24;;;;;;;32.80;12.30;;;-9.70;99.90;;;;;;5072530;28;20453;-60
2022/01/13 05:30:49;;;;;;;29.90;12.07;;;-9.70;99.90;;;;;;5072458;28;20254;-60
2022/01/13 05:33:15;;;;;;;34.50;15.67;;;-9.70;99.90;;;;;;5072115;28;20573;-59
2022/01/13 05:35:41;;;;;;;39.43;14.33;;;-9.70;99.90;;;;;;5072001;28;20177;-62
2022/01/13 05:38:08;;;;;;;36.40;14.60;;;-9.70;99.90;;;;;;5072357;28;20532;-62
2022/01/13 05:40:36;;;;;;;27.83;12.60;;;-9.70;99.90;;;;;;5071829;28;20182;-59
2022/01/13 05:43:02;;;;;;;38.17;13.23;;;-9.70;99.90;;;;;;5071588;28;20755;-59
2022/01/13 05:45:29;;;;;;;37.13;13.93;;;-9.60;99.90;;;;;;5071776;28;20412;-58
2022/01/13 05:47:58;;;;;;;27.83;11.00;;;-9.60;99.90;;;;;;5071319;28;20461;-60
2022/01/13 05:50:25;;;;;;;45.67;15.63;;;-9.50;99.90;;;;;;5071820;28;20394;-57
2022/01/13 05:52:51;;;;;;;31.60;12.10;;;-9.50;99.90;;;;;;5071318;28;20464;-56
2022/01/13 05:55:17;;;;;;;53.80;15.40;;;-9.50;99.90;;;;;;5071670;28;20855;-53
2022/01/13 05:57:44;;;;;;;45.90;16.80;;;-9.50;99.90;;;;;;5071220;28;20295;-61
2022/01/13 06:00:12;;;;;;;52.03;15.33;;;-9.40;99.90;;;;;;5071911;28;20452;-58
2022/01/13 06:02:38;;;;;;;28.90;12.97;;;-9.50;99.90;;;;;;5071586;28;20409;-60
2022/01/13 06:05:05;;;;;;;44.17;15.67;;;-9.50;99.90;;;;;;5053385;28;20407;-57
2022/01/13 06:07:31;;;;;;;41.97;15.03;;;-9.40;99.90;;;;;;5071371;28;20422;-57
2022/01/13 06:09:57;;;;;;;42.20;14.90;;;-9.50;99.90;;;;;;5071352;28;20999;-56
2022/01/13 06:12:32;;;;;;;35.30;13.40;;;-9.50;99.90;;;;;;5036611;28;20244;-59
2022/01/13 06:14:59;;;;;;;34.47;12.57;;;-9.40;99.90;;;;;;5070745;28;20180;-54
2022/01/13 06:17:25;;;;;;;40.50;14.43;;;-9.40;99.90;;;;;;5070954;28;20421;-54
2022/01/13 06:19:51;;;;;;;43.03;14.43;;;-9.60;99.90;;;;;;5053378;28;20835;-55
2022/01/13 06:22:16;;;;;;;37.93;14.23;;;-9.70;99.90;;;;;;5071369;28;20191;-55
2022/01/13 06:24:42;;;;;;;41.23;14.10;;;-9.80;99.90;;;;;;5053072;28;20228;-55
2022/01/13 06:27:08;;;;;;;56.33;23.57;;;-9.80;99.90;;;;;;5069468;28;20675;-58
2022/01/13 06:29:33;;;;;;;35.90;13.53;;;-9.70;99.90;;;;;;5051917;28;20181;-57
2022/01/13 06:31:59;;;;;;;40.80;15.33;;;-9.70;99.90;;;;;;5069834;28;20681;-55
2022/01/13 06:34:25;;;;;;;40.33;14.17;;;-9.60;99.90;;;;;;5069259;28;20723;-55
2022/01/13 06:36:51;;;;;;;39.77;14.47;;;-9.50;99.90;;;;;;5051043;28;20185;-56
2022/01/13 06:39:16;;;;;;;34.83;13.93;;;-9.50;99.90;;;;;;5051488;28;20649;-54
2022/01/13 06:41:42;;;;;;;38.27;14.43;;;-9.40;99.90;;;;;;5051773;28;20657;-56
2022/01/13 06:44:08;;;;;;;49.30;15.73;;;-9.30;99.90;;;;;;5069364;28;20178;-56
2022/01/13 06:46:34;;;;;;;51.50;17.07;;;-9.30;99.90;;;;;;5068434;28;20174;-54
2022/01/13 06:48:59;;;;;;;49.20;16.03;;;-9.30;99.90;;;;;;5060336;28;20239;-55
2022/01/13 06:51:25;;;;;;;41.93;16.47;;;-9.20;99.90;;;;;;5052433;28;20237;-56
2022/01/13 06:53:51;;;;;;;47.13;13.67;;;-9.10;99.90;;;;;;5073940;28;20203;-58
2022/01/13 06:56:16;;;;;;;40.03;14.03;;;-9.00;99.90;;;;;;5070217;28;20196;-57
2022/01/13 06:58:45;;;;;;;45.53;18.27;;;-8.70;99.90;;;;;;5064124;28;20251;-52
2022/01/13 07:01:11;;;;;;;54.87;17.23;;;-8.40;99.90;;;;;;5053243;28;20215;-54
2022/01/13 07:03:37;;;;;;;47.13;16.00;;;-8.10;99.90;;;;;;5056254;28;20922;-56
2022/01/13 07:06:02;;;;;;;54.30;18.77;;;-7.80;99.90;;;;;;5070619;28;20235;-54
2022/01/13 07:08:28;;;;;;;48.17;19.83;;;-7.60;99.90;;;;;;5073919;28;20800;-54
2022/01/13 07:10:54;;;;;;;39.93;16.17;;;-7.40;99.90;;;;;;5052706;28;20650;-57
2022/01/13 07:13:20;;;;;;;34.97;15.13;;;-7.30;99.90;;;;;;5070281;28;21021;-55
2022/01/13 07:15:46;;;;;;;54.97;18.13;;;-7.20;99.90;;;;;;5073562;28;20189;-65
2022/01/13 07:18:13;;;;;;;42.97;15.03;;;-7.20;99.90;;;;;;5055861;28;20250;-54
2022/01/13 07:20:40;;;;;;;47.40;16.07;;;-7.10;99.90;;;;;;5074462;28;20188;-55
2022/01/13 07:23:06;;;;;;;44.23;15.13;;;-7.10;99.90;;;;;;5064598;28;20544;-56
2022/01/13 07:25:32;;;;;;;44.23;16.37;;;-7.00;99.90;;;;;;5074063;28;20193;-56
2022/01/13 07:27:58;;;;;;;39.93;15.10;;;-6.80;99.90;;;;;;5073864;28;20181;-56
2022/01/13 07:30:24;;;;;;;48.10;16.67;;;-6.70;99.90;;;;;;5049678;28;20233;-56
2022/01/13 07:32:50;;;;;;;45.23;17.37;;;-6.40;99.90;;;;;;5066465;28;20247;-59
2022/01/13 07:35:15;;;;;;;48.70;15.87;;;-6.30;99.90;;;;;;5086930;28;20189;-56
2022/01/13 07:37:42;;;;;;;47.90;16.30;;;-6.20;99.90;;;;;;5074240;28;20193;-58
2022/01/13 07:40:13;;;;;;;47.33;19.40;;;-6.30;99.90;;;;;;5073883;28;20578;-59
2022/01/13 07:42:42;;;;;;;34.93;15.20;;;-6.40;99.90;;;;;;5074195;28;20196;-57
2022/01/13 07:45:11;;;;;;;47.10;17.03;;;-6.40;99.90;;;;;;5042764;28;20287;-55
2022/01/13 07:47:37;;;;;;;46.23;16.83;;;-6.30;99.90;;;;;;5071863;28;20193;-57
2022/01/13 07:50:05;;;;;;;39.67;16.17;;;-6.20;99.90;;;;;;5056307;28;20236;-57
2022/01/13 07:52:31;;;;;;;42.67;16.67;;;-6.00;99.90;;;;;;5055422;28;20237;-57
2022/01/13 07:54:57;;;;;;;37.13;14.63;;;-6.10;99.90;;;;;;5072947;28;20200;-59
2022/01/13 07:57:23;;;;;;;43.53;15.83;;;-6.20;99.90;;;;;;5076888;28;20189;-58
2022/01/13 07:59:49;;;;;;;44.27;17.67;;;-6.20;99.90;;;;;;5072941;28;20192;-60
2022/01/13 08:02:15;;;;;;;46.20;15.73;;;-6.20;99.90;;;;;;5054007;28;20200;-56
2022/01/13 08:04:40;;;;;;;46.80;16.63;;;-6.20;99.90;;;;;;5062594;28;20233;-60
2022/01/13 08:07:06;;;;;;;50.97;17.20;;;-6.10;99.90;;;;;;5072686;28;20608;-55
2022/01/13 08:09:32;;;;;;;45.00;14.80;;;-6.00;99.90;;;;;;5073034;28;20211;-57
2022/01/13 08:11:58;;;;;;;42.80;15.43;;;-5.70;99.90;;;;;;5072854;28;20227;-62
2022/01/13 08:14:23;;;;;;;47.80;16.20;;;-5.40;99.90;;;;;;5073200;28;20194;-57
2022/01/13 08:16:53;;;;;;;42.50;15.17;;;-5.30;99.90;;;;;;5072376;28;20191;-66
2022/01/13 08:22:03;;;;;;;55.73;15.67;;;-5.10;99.90;;;;;;5064870;28;20258;-59
2022/01/13 08:24:29;;;;;;;42.60;15.40;;;-5.10;99.90;;;;;;5063694;28;20559;-56
2022/01/13 08:26:54;;;;;;;38.03;14.33;;;-5.00;99.90;;;;;;5061928;28;20202;-56
2022/01/13 08:29:20;;;;;;;41.60;15.27;;;-4.80;99.90;;;;;;5072701;28;20194;-59
2022/01/13 08:31:46;;;;;;;29.23;13.30;;;-4.60;99.90;;;;;;5072204;28;20331;-58
2022/01/13 08:34:13;;;;;;;42.70;14.57;;;-4.70;99.90;;;;;;5072640;28;20229;-55
2022/01/13 08:36:39;;;;;;;35.33;14.27;;;-4.90;99.90;;;;;;5056577;28;20199;-63
2022/01/13 08:39:05;;;;;;;59.47;15.53;;;-5.20;99.90;;;;;;5054669;28;20690;-59
2022/01/13 08:41:31;;;;;;;29.43;12.53;;;-5.30;99.90;;;;;;5072320;28;20565;-56
2022/01/13 08:43:57;;;;;;;35.83;12.87;;;-5.30;99.90;;;;;;5037926;28;20222;-58
2022/01/13 08:46:23;;;;;;;31.37;12.50;;;-5.40;99.90;;;;;;5071894;28;20189;-52
2022/01/13 08:48:49;;;;;;;32.60;14.47;;;-5.50;99.90;;;;;;5073295;28;20294;-61
2022/01/13 08:51:17;;;;;;;42.33;12.97;;;-5.20;99.90;;;;;;5073019;28;20181;-60
2022/01/13 08:53:43;;;;;;;31.93;12.87;;;-4.80;99.90;;;;;;5054875;28;20239;-59
2022/01/13 08:56:09;;;;;;;32.57;12.63;;;-4.60;99.90;;;;;;5072472;28;20182;-59
2022/01/13 08:58:35;;;;;;;36.53;12.93;;;-4.80;99.90;;;;;;5055149;28;20192;-59
2022/01/13 09:01:01;;;;;;;41.87;13.87;;;-4.90;99.90;;;;;;5072549;28;20252;-58
2022/01/13 09:03:26;;;;;;;36.63;12.60;;;-5.00;99.90;;;;;;5054390;28;20264;-57
2022/01/13 09:05:52;;;;;;;46.43;13.30;;;-5.00;99.90;;;;;;5072455;28;20171;-59
2022/01/13 09:08:18;;;;;;;52.87;12.97;;;-4.80;99.90;;;;;;5037783;28;20517;-57
2022/01/13 09:10:44;;;;;;;33.67;13.67;;;-4.70;99.90;;;;;;5054069;28;20270;-55
2022/01/13 09:13:14;;;;;;;31.63;11.63;;;-4.70;99.90;;;;;;5052962;28;20678;-59
2022/01/13 09:15:45;;;;;;;37.13;10.70;;;-4.80;99.90;;;;;;5069990;28;20190;-60
2022/01/13 09:18:17;;;;;;;27.87;11.03;;;-4.80;99.90;;;;;;5052571;28;20208;-59
2022/01/13 09:20:44;;;;;;;34.00;11.87;;;-4.80;99.90;;;;;;5070503;28;20257;-59
2022/01/13 09:23:10;;;;;;;33.07;12.03;;;-4.90;99.90;;;;;;5051926;28;20188;-61
2022/01/13 09:25:36;;;;;;;29.33;11.10;;;-5.00;99.90;;;;;;5069982;28;20540;-59
2022/01/13 09:28:07;;;;;;;28.57;11.20;;;-4.90;99.90;;;;;;5052331;28;20199;-56
2022/01/13 09:30:34;;;;;;;27.73;10.37;;;-4.80;99.90;;;;;;5071705;28;20278;-57
2022/01/13 09:32:59;;;;;;;40.67;12.70;;;-4.70;99.90;;;;;;5071287;28;20288;-56
2022/01/13 09:35:25;;;;;;;33.90;11.57;;;-4.40;99.90;;;;;;5071593;28;20608;-59
2022/01/13 09:37:51;;;;;;;41.60;13.33;;;-4.20;99.90;;;;;;5071813;28;20184;-61
2022/01/13 09:40:17;;;;;;;30.67;12.90;;;-4.10;99.90;;;;;;5070917;28;20298;-58
2022/01/13 09:42:45;;;;;;;30.00;11.87;;;-4.10;99.90;;;;;;5053090;28;20182;-57
2022/01/13 09:45:14;;;;;;;28.53;11.57;;;-4.10;99.90;;;;;;5071007;28;20180;-57
2022/01/13 09:47:41;;;;;;;32.20;13.73;;;-3.90;99.90;;;;;;5071873;28;20216;-58
2022/01/13 09:50:10;;;;;;;44.50;15.03;;;-3.70;99.90;;;;;;5070804;28;20259;-56
2022/01/13 09:52:37;;;;;;;28.43;10.30;;;-3.60;99.90;;;;;;5053359;28;20294;-58
2022/01/13 09:55:06;;;;;;;26.70;11.93;;;-3.50;99.90;;;;;;5070756;28;20658;-58
2022/01/13 09:57:31;;;;;;;40.77;12.97;;;-3.40;99.90;;;;;;5070672;28;20189;-59
2022/01/13 09:59:58;;;;;;;43.17;12.80;;;-3.20;99.90;;;;;;5071004;28;20553;-58
2022/01/13 10:02:25;;;;;;;32.30;12.67;;;-3.10;99.90;;;;;;5071052;28;20193;-59
2022/01/13 10:04:53;;;;;;;35.77;12.47;;;-3.10;99.90;;;;;;5071172;28;20181;-60
2022/01/13 10:07:42;;;;;;;38.70;12.43;;;-3.00;99.90;;;;;;5053097;28;20193;-56
2022/01/13 10:10:14;;;;;;;29.73;11.73;;;-2.80;99.90;;;;;;5052845;28;20182;-57
2022/01/13 10:12:42;;;;;;;26.67;10.77;;;-2.70;99.90;;;;;;5070390;28;20212;-58
2022/01/13 10:17:59;;;;;;;33.10;11.37;;;-2.40;99.90;;;;;;5070817;28;20191;-60
2022/01/13 10:20:25;;;;;;;34.97;12.83;;;-2.30;99.90;;;;;;5071434;28;20535;-60
2022/01/13 10:22:52;;;;;;;34.00;11.63;;;-2.30;99.90;;;;;;5070295;28;20600;-56
2022/01/13 10:25:25;;;;;;;45.80;14.57;;;-2.20;99.90;;;;;;5071049;28;20192;-60
2022/01/13 10:27:51;;;;;;;41.23;12.27;;;-2.00;99.90;;;;;;5070626;28;20177;-59
2022/01/13 10:30:18;;;;;;;29.03;12.80;;;-1.90;99.90;;;;;;5052720;28;20602;-57
2022/01/13 10:32:45;;;;;;;41.70;12.90;;;-1.80;99.90;;;;;;5070587;28;20221;-57
2022/01/13 10:35:16;;;;;;;43.07;12.60;;;-1.70;99.90;;;;;;5070902;28;20229;-59
2022/01/13 10:37:54;;;;;;;30.93;11.80;;;-1.40;99.90;;;;;;5070825;28;20258;-57
2022/01/13 10:40:26;;;;;;;35.20;13.50;;;-1.40;99.90;;;;;;5071130;28;20189;-58
2022/01/13 10:45:40;;;;;;;32.80;12.10;;;-1.00;99.90;;;;;;5071079;28;20170;-60
2022/01/13 10:48:21;;;;;;;31.73;11.67;;;-0.80;99.90;;;;;;5070206;28;20241;-59
2022/01/13 10:51:07;;;;;;;29.73;11.97;;;-0.60;99.90;;;;;;5070852;28;20226;-60
2022/01/13 10:53:35;;;;;;;49.43;12.90;;;-0.60;99.90;;;;;;5070512;28;20662;-61
2022/01/13 10:56:07;;;;;;;35.63;13.37;;;-0.50;99.90;;;;;;5052431;28;20185;-59
2022/01/13 10:58:35;;;;;;;38.67;13.20;;;-0.30;99.90;;;;;;5052105;28;20189;-59
2022/01/13 11:01:03;;;;;;;37.50;13.97;;;-0.40;99.90;;;;;;5051797;28;20240;-59
2022/01/13 11:03:33;;;;;;;36.93;13.20;;;-0.20;99.90;;;;;;5052761;28;20182;-63
2022/01/13 11:06:02;;;;;;;29.40;11.57;;;-0.20;99.90;;;;;;5052250;28;20185;-63
2022/01/13 11:08:42;;;;;;;33.77;12.57;;;-0.30;99.90;;;;;;5070443;28;20215;-59
2022/01/13 11:11:20;;;;;;;38.00;13.70;;;-0.20;99.90;;;;;;5052205;28;20174;-60
2022/01/13 11:13:49;;;;;;;41.53;13.37;;;-0.20;99.90;;;;;;5070353;28;20550;-60
2022/01/13 11:16:16;;;;;;;44.13;15.23;;;-0.10;99.90;;;;;;5070087;28;20230;-61
2022/01/13 11:18:41;;;;;;;55.07;16.50;;;-0.10;99.90;;;;;;5070543;28;20193;-61
2022/01/13 11:21:07;;;;;;;47.63;14.43;;;-0.10;99.90;;;;;;5052265;28;20178;-57
2022/01/13 11:23:34;;;;;;;43.90;15.57;;;-0.10;99.90;;;;;;5051802;28;20552;-60
2022/01/13 11:26:01;;;;;;;43.47;12.03;;;0.00;99.90;;;;;;5070585;28;20186;-60
2022/01/13 11:28:26;;;;;;;34.57;12.83;;;0.00;99.90;;;;;;5070405;28;20175;-60
2022/01/13 11:30:52;;;;;;;32.57;12.33;;;0.00;99.90;;;;;;5069957;28;20201;-57
2022/01/13 11:33:19;;;;;;;44.00;13.57;;;0.10;99.90;;;;;;5070160;28;20321;-60
2022/01/13 11:35:53;;;;;;;48.03;12.37;;;0.20;99.90;;;;;;5073900;28;20692;-63
2022/01/13 11:38:19;;;;;;;40.07;13.17;;;0.50;99.90;;;;;;5056205;28;20395;-59
2022/01/13 11:40:50;;;;;;;54.33;14.73;;;0.70;99.90;;;;;;5056681;28;20185;-56
2022/01/13 11:43:25;;;;;;;38.23;13.47;;;0.80;99.90;;;;;;5073620;28;20180;-60
2022/01/13 11:45:51;;;;;;;37.90;11.70;;;0.90;99.90;;;;;;5074142;28;20264;-60
2022/01/13 11:48:26;;;;;;;37.17;12.20;;;0.90;99.90;;;;;;5050389;28;20335;-60
2022/01/13 11:51:14;;;;;;;48.37;14.33;;;1.10;99.90;;;;;;5053730;28;20243;-57
2022/01/13 11:54:04;;;;;;;58.57;12.70;;;1.20;99.90;;;;;;5053778;28;20250;-59
2022/01/13 11:56:30;;;;;;;39.80;11.13;;;1.30;99.90;;;;;;5053648;28;20515;-61
2022/01/13 11:58:56;;;;;;;20.30;7.73;;;1.40;99.90;;;;;;5053171;28;20240;-60
2022/01/13 12:01:35;;;;;;;30.93;9.27;;;1.40;99.90;;;;;;5034542;28;20197;-58
2022/01/13 12:04:06;;;;;;;17.10;6.93;;;1.40;99.90;;;;;;5052907;28;20178;-67
2022/01/13 12:06:34;;;;;;;47.27;9.50;;;1.60;99.90;;;;;;5053317;28;20220;-60
2022/01/13 12:09:00;;;;;;;64.77;12.90;;;1.80;99.90;;;;;;5053280;28;20167;-60
2022/01/13 12:11:50;;;;;;;26.40;8.80;;;2.00;99.90;;;;;;5034769;28;20178;-56
2022/01/13 12:14:26;;;;;;;58.30;11.60;;;2.20;99.90;;;;;;5048081;28;20186;-59
2022/01/13 12:17:08;;;;;;;40.50;11.37;;;2.20;99.90;;;;;;5052854;28;20196;-62
2022/01/13 12:19:38;;;;;;;29.07;10.60;;;2.30;99.90;;;;;;5053374;28;20167;-60
2022/01/13 12:22:12;;;;;;;41.00;12.97;;;2.30;99.90;;;;;;5071115;28;20175;-61
2022/01/13 12:24:56;;;;;;;35.93;11.63;;;2.80;99.90;;;;;;5073663;28;20627;-62
2022/01/13 12:27:25;;;;;;;30.93;11.03;;;4.10;99.90;;;;;;5072797;28;20906;-59
2022/01/13 12:30:22;;;;;;;25.60;9.90;;;5.60;97.90;;;;;;5057926;28;20213;-59
2022/01/13 12:32:50;;;;;;;39.73;13.07;;;6.60;94.10;;;;;;5043500;28;20702;-61
2022/01/13 12:35:22;;;;;;;25.00;11.20;;;6.80;92.30;;;;;;5053083;28;20178;-60
2022/01/13 12:38:06;;;;;;;41.20;12.57;;;7.10;91.90;;;;;;5035031;28;20243;-61
2022/01/13 12:40:43;;;;;;;28.80;11.73;;;7.20;91.20;;;;;;5034557;28;20265;-60
2022/01/13 12:46:08;;;;;;;29.67;12.40;;;5.90;92.00;;;;;;5051938;28;20169;-60
2022/01/13 12:48:37;;;;;;;28.23;12.20;;;5.20;93.20;;;;;;5059472;28;20241;-60
2022/01/13 12:51:04;;;;;;;34.33;13.33;;;4.50;94.50;;;;;;5072558;28;20494;-70
2022/01/13 12:53:36;;;;;;;35.30;12.00;;;4.20;95.80;;;;;;5072472;28;20212;-60
2022/01/13 12:56:14;;;;;;;33.87;11.50;;;3.90;96.60;;;;;;5072130;28;20172;-59
2022/01/13 12:58:46;;;;;;;32.10;11.50;;;3.70;97.00;;;;;;5072855;28;20226;-60
2022/01/13 13:01:20;;;;;;;27.90;10.57;;;3.80;97.30;;;;;;5071780;28;20177;-60
2022/01/13 13:04:07;;;;;;;23.97;10.30;;;3.90;97.40;;;;;;5072223;28;20166;-61
2022/01/13 13:06:35;;;;;;;62.40;13.77;;;4.00;98.00;;;;;;5072043;28;20179;-59